Date,TemperatureHighF,TemperatureAvgF,TemperatureLowF,DewpointHighF,DewpointAvgF,DewpointLowF,HumidityHigh,HumidityAvg,HumidityLow,PressureMaxIn,PressureMinIn,WindSpeedMaxMPH,WindSpeedAvgMPH,GustSpeedMaxMPH,PrecipitationSumIn
2013-4-1,49,37,28,25,18,8,80,47,26,0.00,40.00,12,7,25,0.00
2013-4-2,38,29,23,26,23,21,94,81,58,0.00,40.00,10,5,21,0.00
2013-4-3,48,34,23,27,20,10,94,64,24,0.00,40.00,14,6,25,0.11
2013-4-4,54,42,30,18,13,7,53,33,15,0.00,40.00,13,6,25,0.11
2013-4-5,55,46,36,29,16,9,75,32,17,0.00,40.00,23,14,37,0.00
2013-4-6,51,41,32,27,14,4,68,37,14,0.00,40.00,23,12,39,0.00
2013-4-7,47,40,33,22,18,15,58,43,29,0.00,40.00,26,19,50,0.00
2013-4-8,52,41,33,28,18,10,68,40,22,0.00,40.00,10,6,34,0.00
2013-4-9,41,20,8,29,15,4,94,82,40,0.00,40.00,9,6,25,0.00
2013-4-10,32,19,4,19,12,0,84,73,55,0.00,40.00,14,5,23,0.19
2013-4-11,45,30,17,22,14,4,68,52,31,0.00,40.00,18,10,35,0.10
2013-4-12,45,35,28,25,16,7,63,48,29,0.00,40.00,19,9,31,0.00
2013-4-13,49,41,30,27,12,5,76,32,19,0.00,40.00,26,17,51,0.00
2013-4-14,39,32,27,31,22,15,97,70,38,0.00,40.00,28,17,60,0.22
2013-4-15,50,37,21,23,16,3,81,43,26,0.00,40.00,18,11,39,0.05
2013-4-16,50,28,17,22,17,11,92,69,20,0.00,40.00,19,11,53,0.00
2013-4-17,29,21,10,22,17,6,94,85,61,0.00,40.00,16,10,35,0.00
2013-4-18,26,16,8,6,2,-4,85,58,26,0.00,40.00,17,8,30,0.10
2013-4-19,39,27,14,12,5,-2,55,39,29,0.00,40.00,23,14,40,0.02
2013-4-20,40,33,26,23,17,11,71,52,39,0.00,40.00,13,9,27,0.00
2013-4-21,49,38,28,24,14,-1,81,43,14,0.00,40.00,19,10,32,0.00
2013-4-22,51,37,17,26,20,11,92,55,23,0.00,40.00,23,17,45,0.00
2013-4-23,17,16,15,14,13,12,89,88,88,0.00,40.00,8,7,20,0.00